sensor_id;sensor_type;location;lat;lon;timestamp;P1;durP1;ratioP1;P2;durP2;ratioP2
48034;SDS011;33812;46.480;6.834;2023-09-12T00:03:20;14.38;;;4.95;;
48034;SDS011;33812;46.480;6.834;2023-09-12T00:07:23;18.88;;;5.65;;
48034;SDS011;33812;46.480;6.834;2023-09-12T00:11:27;19.10;;;6.00;;
48034;SDS011;33812;46.480;6.834;2023-09-12T00:15:29;23.30;;;6.38;;
48034;SDS011;33812;46.480;6.834;2023-09-12T00:19:31;22.90;;;5.78;;
48034;SDS011;33812;46.480;6.834;2023-09-12T00:23:33;22.33;;;5.72;;
48034;SDS011;33812;46.480;6.834;2023-09-12T00:27:36;26.73;;;6.50;;
48034;SDS011;33812;46.480;6.834;2023-09-12T00:31:38;23.90;;;6.22;;
48034;SDS011;33812;46.480;6.834;2023-09-12T00:35:39;22.00;;;5.80;;
48034;SDS011;33812;46.480;6.834;2023-09-12T00:39:41;15.30;;;5.32;;
48034;SDS011;33812;46.480;6.834;2023-09-12T00:43:44;15.63;;;5.25;;
48034;SDS011;33812;46.480;6.834;2023-09-12T00:47:46;13.57;;;4.72;;
48034;SDS011;33812;46.480;6.834;2023-09-12T00:51:49;21.00;;;5.97;;
48034;SDS011;33812;46.480;6.834;2023-09-12T00:55:53;20.85;;;6.03;;
48034;SDS011;33812;46.480;6.834;2023-09-12T01:00:00;18.23;;;5.70;;
48034;SDS011;33812;46.480;6.834;2023-09-12T01:04:11;25.17;;;6.55;;
48034;SDS011;33812;46.480;6.834;2023-09-12T01:08:13;21.60;;;5.93;;
48034;SDS011;33812;46.480;6.834;2023-09-12T01:12:15;18.50;;;5.60;;
48034;SDS011;33812;46.480;6.834;2023-09-12T01:16:19;19.70;;;6.18;;
48034;SDS011;33812;46.480;6.834;2023-09-12T01:20:22;27.45;;;6.78;;
48034;SDS011;33812;46.480;6.834;2023-09-12T01:29:09;14.73;;;5.20;;
48034;SDS011;33812;46.480;6.834;2023-09-12T01:33:14;17.33;;;5.47;;
48034;SDS011;33812;46.480;6.834;2023-09-12T01:37:16;13.98;;;4.75;;
48034;SDS011;33812;46.480;6.834;2023-09-12T01:41:18;16.13;;;5.40;;
48034;SDS011;33812;46.480;6.834;2023-09-12T01:45:21;22.70;;;5.90;;
48034;SDS011;33812;46.480;6.834;2023-09-12T01:49:23;13.05;;;5.28;;
48034;SDS011;33812;46.480;6.834;2023-09-12T01:53:27;20.77;;;5.93;;
48034;SDS011;33812;46.480;6.834;2023-09-12T01:57:30;18.50;;;5.20;;
48034;SDS011;33812;46.480;6.834;2023-09-12T02:01:34;23.13;;;5.68;;
48034;SDS011;33812;46.480;6.834;2023-09-12T02:05:36;28.40;;;6.32;;
48034;SDS011;33812;46.480;6.834;2023-09-12T02:09:38;22.70;;;5.95;;
48034;SDS011;33812;46.480;6.834;2023-09-12T02:13:40;20.77;;;6.05;;
48034;SDS011;33812;46.480;6.834;2023-09-12T02:17:43;18.10;;;5.43;;
48034;SDS011;33812;46.480;6.834;2023-09-12T02:21:45;15.30;;;5.40;;
48034;SDS011;33812;46.480;6.834;2023-09-12T02:25:46;18.05;;;5.63;;
48034;SDS011;33812;46.480;6.834;2023-09-12T02:29:48;17.83;;;5.30;;
48034;SDS011;33812;46.480;6.834;2023-09-12T02:33:51;18.70;;;5.60;;
48034;SDS011;33812;46.480;6.834;2023-09-12T02:37:54;19.55;;;5.82;;
48034;SDS011;33812;46.480;6.834;2023-09-12T02:41:56;21.60;;;5.88;;
48034;SDS011;33812;46.480;6.834;2023-09-12T02:45:58;17.67;;;5.35;;
48034;SDS011;33812;46.480;6.834;2023-09-12T02:50:01;22.50;;;5.68;;
48034;SDS011;33812;46.480;6.834;2023-09-12T02:54:03;17.42;;;5.63;;
48034;SDS011;33812;46.480;6.834;2023-09-12T02:58:05;21.02;;;5.35;;
48034;SDS011;33812;46.480;6.834;2023-09-12T03:02:07;20.88;;;5.82;;
48034;SDS011;33812;46.480;6.834;2023-09-12T03:06:10;18.70;;;5.70;;
48034;SDS011;33812;46.480;6.834;2023-09-12T03:10:12;16.38;;;6.30;;
48034;SDS011;33812;46.480;6.834;2023-09-12T03:14:13;25.60;;;6.18;;
48034;SDS011;33812;46.480;6.834;2023-09-12T03:18:15;21.27;;;5.97;;
48034;SDS011;33812;46.480;6.834;2023-09-12T03:22:18;17.15;;;5.45;;
48034;SDS011;33812;46.480;6.834;2023-09-12T03:26:20;14.75;;;5.07;;
48034;SDS011;33812;46.480;6.834;2023-09-12T03:30:22;20.60;;;5.80;;
48034;SDS011;33812;46.480;6.834;2023-09-12T03:34:23;16.88;;;5.50;;
48034;SDS011;33812;46.480;6.834;2023-09-12T03:38:27;15.50;;;5.68;;
48034;SDS011;33812;46.480;6.834;2023-09-12T03:42:29;15.60;;;5.50;;
48034;SDS011;33812;46.480;6.834;2023-09-12T03:46:30;13.82;;;5.13;;
48034;SDS011;33812;46.480;6.834;2023-09-12T03:50:32;11.23;;;5.30;;
48034;SDS011;33812;46.480;6.834;2023-09-12T03:54:35;10.65;;;4.93;;
48034;SDS011;33812;46.480;6.834;2023-09-12T03:58:37;12.10;;;4.93;;
48034;SDS011;33812;46.480;6.834;2023-09-12T04:02:39;12.50;;;5.30;;
48034;SDS011;33812;46.480;6.834;2023-09-12T04:06:41;24.75;;;6.28;;
48034;SDS011;33812;46.480;6.834;2023-09-12T04:10:44;13.73;;;5.07;;
48034;SDS011;33812;46.480;6.834;2023-09-12T04:14:48;15.65;;;5.40;;
48034;SDS011;33812;46.480;6.834;2023-09-12T04:18:50;12.88;;;5.30;;
48034;SDS011;33812;46.480;6.834;2023-09-12T04:22:52;12.98;;;5.35;;
48034;SDS011;33812;46.480;6.834;2023-09-12T04:26:55;17.13;;;5.40;;
48034;SDS011;33812;46.480;6.834;2023-09-12T04:31:01;21.75;;;6.25;;
48034;SDS011;33812;46.480;6.834;2023-09-12T04:35:03;10.35;;;5.38;;
48034;SDS011;33812;46.480;6.834;2023-09-12T04:39:06;11.10;;;4.63;;
48034;SDS011;33812;46.480;6.834;2023-09-12T04:43:09;6.40;;;4.50;;
48034;SDS011;33812;46.480;6.834;2023-09-12T04:47:10;13.40;;;5.25;;
48034;SDS011;33812;46.480;6.834;2023-09-12T04:51:12;18.20;;;5.90;;
48034;SDS011;33812;46.480;6.834;2023-09-12T04:55:14;12.98;;;5.55;;
48034;SDS011;33812;46.480;6.834;2023-09-12T04:59:17;8.02;;;4.82;;
48034;SDS011;33812;46.480;6.834;2023-09-12T05:03:20;15.18;;;5.38;;
48034;SDS011;33812;46.480;6.834;2023-09-12T05:07:22;38.70;;;7.60;;
48034;SDS011;33812;46.480;6.834;2023-09-12T05:11:24;11.25;;;5.38;;
48034;SDS011;33812;46.480;6.834;2023-09-12T05:15:27;10.13;;;4.68;;
48034;SDS011;33812;46.480;6.834;2023-09-12T05:19:29;13.45;;;4.70;;
48034;SDS011;33812;46.480;6.834;2023-09-12T05:23:31;8.52;;;5.65;;
48034;SDS011;33812;46.480;6.834;2023-09-12T05:27:33;16.77;;;6.15;;
48034;SDS011;33812;46.480;6.834;2023-09-12T05:31:36;16.27;;;5.57;;
48034;SDS011;33812;46.480;6.834;2023-09-12T05:35:38;10.38;;;4.68;;
48034;SDS011;33812;46.480;6.834;2023-09-12T05:39:41;23.13;;;5.18;;
48034;SDS011;33812;46.480;6.834;2023-09-12T05:43:43;12.23;;;5.05;;
48034;SDS011;33812;46.480;6.834;2023-09-12T05:47:47;20.70;;;5.57;;
48034;SDS011;33812;46.480;6.834;2023-09-12T05:51:49;13.75;;;6.75;;
48034;SDS011;33812;46.480;6.834;2023-09-12T05:55:51;10.25;;;5.18;;
48034;SDS011;33812;46.480;6.834;2023-09-12T05:59:52;9.00;;;4.90;;
48034;SDS011;33812;46.480;6.834;2023-09-12T06:03:56;11.30;;;5.10;;
48034;SDS011;33812;46.480;6.834;2023-09-12T06:07:57;36.92;;;5.97;;
48034;SDS011;33812;46.480;6.834;2023-09-12T06:12:01;8.20;;;4.97;;
48034;SDS011;33812;46.480;6.834;2023-09-12T06:16:03;22.63;;;6.30;;
48034;SDS011;33812;46.480;6.834;2023-09-12T06:20:07;20.20;;;5.80;;
48034;SDS011;33812;46.480;6.834;2023-09-12T06:24:11;23.27;;;5.25;;
48034;SDS011;33812;46.480;6.834;2023-09-12T06:28:13;16.88;;;5.65;;
48034;SDS011;33812;46.480;6.834;2023-09-12T06:32:27;22.70;;;5.45;;
48034;SDS011;33812;46.480;6.834;2023-09-12T06:36:30;34.00;;;7.05;;
48034;SDS011;33812;46.480;6.834;2023-09-12T06:40:32;22.48;;;5.50;;
48034;SDS011;33812;46.480;6.834;2023-09-12T06:44:34;32.45;;;7.18;;
48034;SDS011;33812;46.480;6.834;2023-09-12T06:48:37;16.10;;;5.95;;
48034;SDS011;33812;46.480;6.834;2023-09-12T06:52:40;13.65;;;5.93;;
48034;SDS011;33812;46.480;6.834;2023-09-12T06:56:42;17.17;;;6.30;;
48034;SDS011;33812;46.480;6.834;2023-09-12T07:00:43;30.27;;;6.93;;
48034;SDS011;33812;46.480;6.834;2023-09-12T07:04:45;20.90;;;5.93;;
48034;SDS011;33812;46.480;6.834;2023-09-12T07:08:48;83.30;;;10.73;;
48034;SDS011;33812;46.480;6.834;2023-09-12T07:12:52;29.75;;;6.28;;
48034;SDS011;33812;46.480;6.834;2023-09-12T07:16:54;29.27;;;6.43;;
48034;SDS011;33812;46.480;6.834;2023-09-12T07:20:56;24.27;;;6.63;;
48034;SDS011;33812;46.480;6.834;2023-09-12T07:25:00;25.10;;;6.78;;
48034;SDS011;33812;46.480;6.834;2023-09-12T07:29:02;16.50;;;5.85;;
48034;SDS011;33812;46.480;6.834;2023-09-12T07:33:05;18.30;;;5.68;;
48034;SDS011;33812;46.480;6.834;2023-09-12T07:37:07;20.67;;;5.95;;
48034;SDS011;33812;46.480;6.834;2023-09-12T07:41:11;10.55;;;5.57;;
48034;SDS011;33812;46.480;6.834;2023-09-12T07:45:13;24.67;;;5.40;;
48034;SDS011;33812;46.480;6.834;2023-09-12T07:49:15;16.67;;;6.47;;
48034;SDS011;33812;46.480;6.834;2023-09-12T07:53:17;13.20;;;6.10;;
48034;SDS011;33812;46.480;6.834;2023-09-12T07:57:24;9.23;;;5.70;;
48034;SDS011;33812;46.480;6.834;2023-09-12T08:01:28;9.57;;;5.25;;
48034;SDS011;33812;46.480;6.834;2023-09-12T08:05:30;34.63;;;7.13;;
48034;SDS011;33812;46.480;6.834;2023-09-12T08:09:47;11.35;;;5.32;;
48034;SDS011;33812;46.480;6.834;2023-09-12T08:13:51;17.40;;;5.70;;
48034;SDS011;33812;46.480;6.834;2023-09-12T08:17:53;19.50;;;5.53;;
48034;SDS011;33812;46.480;6.834;2023-09-12T08:21:57;35.53;;;6.40;;
48034;SDS011;33812;46.480;6.834;2023-09-12T08:25:59;19.60;;;5.43;;
48034;SDS011;33812;46.480;6.834;2023-09-12T08:30:03;17.35;;;6.25;;
48034;SDS011;33812;46.480;6.834;2023-09-12T08:34:06;19.13;;;5.55;;
48034;SDS011;33812;46.480;6.834;2023-09-12T08:38:07;10.10;;;4.70;;
48034;SDS011;33812;46.480;6.834;2023-09-12T08:42:11;12.23;;;4.60;;
48034;SDS011;33812;46.480;6.834;2023-09-12T08:46:16;23.17;;;5.72;;
48034;SDS011;33812;46.480;6.834;2023-09-12T08:50:18;9.80;;;5.17;;
48034;SDS011;33812;46.480;6.834;2023-09-12T08:54:23;15.30;;;5.35;;
48034;SDS011;33812;46.480;6.834;2023-09-12T08:58:25;20.17;;;5.70;;
48034;SDS011;33812;46.480;6.834;2023-09-12T09:02:28;13.98;;;5.18;;
48034;SDS011;33812;46.480;6.834;2023-09-12T09:06:31;22.40;;;5.95;;
48034;SDS011;33812;46.480;6.834;2023-09-12T09:10:37;12.55;;;4.65;;
48034;SDS011;33812;46.480;6.834;2023-09-12T09:14:39;9.05;;;4.78;;
48034;SDS011;33812;46.480;6.834;2023-09-12T09:18:52;8.48;;;4.65;;
48034;SDS011;33812;46.480;6.834;2023-09-12T09:22:56;10.75;;;5.15;;
48034;SDS011;33812;46.480;6.834;2023-09-12T09:26:59;35.45;;;7.57;;
48034;SDS011;33812;46.480;6.834;2023-09-12T09:31:01;19.10;;;4.97;;
48034;SDS011;33812;46.480;6.834;2023-09-12T09:35:08;8.23;;;4.70;;
48034;SDS011;33812;46.480;6.834;2023-09-12T09:39:10;10.13;;;4.78;;
48034;SDS011;33812;46.480;6.834;2023-09-12T09:43:19;15.60;;;6.15;;
48034;SDS011;33812;46.480;6.834;2023-09-12T09:47:21;18.98;;;5.65;;
48034;SDS011;33812;46.480;6.834;2023-09-12T09:51:25;12.18;;;4.75;;
48034;SDS011;33812;46.480;6.834;2023-09-12T09:55:26;8.50;;;4.60;;
48034;SDS011;33812;46.480;6.834;2023-09-12T09:59:28;15.80;;;5.38;;
48034;SDS011;33812;46.480;6.834;2023-09-12T10:03:30;11.07;;;5.10;;
48034;SDS011;33812;46.480;6.834;2023-09-12T10:07:37;10.85;;;4.97;;
48034;SDS011;33812;46.480;6.834;2023-09-12T10:11:39;11.13;;;5.23;;
48034;SDS011;33812;46.480;6.834;2023-09-12T10:15:43;11.75;;;4.82;;
48034;SDS011;33812;46.480;6.834;2023-09-12T10:19:47;18.23;;;5.43;;
48034;SDS011;33812;46.480;6.834;2023-09-12T10:23:58;13.10;;;5.32;;
48034;SDS011;33812;46.480;6.834;2023-09-12T10:28:01;14.43;;;5.38;;
48034;SDS011;33812;46.480;6.834;2023-09-12T10:32:04;12.25;;;4.93;;
48034;SDS011;33812;46.480;6.834;2023-09-12T10:36:08;11.88;;;4.90;;
48034;SDS011;33812;46.480;6.834;2023-09-12T10:40:11;8.52;;;4.65;;
48034;SDS011;33812;46.480;6.834;2023-09-12T10:44:15;28.27;;;6.18;;
48034;SDS011;33812;46.480;6.834;2023-09-12T10:48:18;18.15;;;5.47;;
48034;SDS011;33812;46.480;6.834;2023-09-12T10:52:26;32.17;;;5.97;;
48034;SDS011;33812;46.480;6.834;2023-09-12T10:56:30;13.68;;;5.13;;
48034;SDS011;33812;46.480;6.834;2023-09-12T11:00:32;24.10;;;6.32;;
48034;SDS011;33812;46.480;6.834;2023-09-12T11:04:34;10.82;;;5.03;;
48034;SDS011;33812;46.480;6.834;2023-09-12T11:08:40;18.90;;;5.82;;
48034;SDS011;33812;46.480;6.834;2023-09-12T11:21:14;30.77;;;7.22;;
48034;SDS011;33812;46.480;6.834;2023-09-12T11:25:16;30.23;;;8.38;;
48034;SDS011;33812;46.480;6.834;2023-09-12T11:29:19;23.08;;;7.18;;
48034;SDS011;33812;46.480;6.834;2023-09-12T11:33:22;14.32;;;6.60;;
48034;SDS011;33812;46.480;6.834;2023-09-12T11:37:26;31.38;;;8.07;;
48034;SDS011;33812;46.480;6.834;2023-09-12T11:45:42;23.60;;;6.50;;
48034;SDS011;33812;46.480;6.834;2023-09-12T11:49:44;23.02;;;5.57;;
48034;SDS011;33812;46.480;6.834;2023-09-12T11:53:48;35.83;;;7.40;;
48034;SDS011;33812;46.480;6.834;2023-09-12T11:57:53;21.83;;;6.15;;
48034;SDS011;33812;46.480;6.834;2023-09-12T12:01:55;19.27;;;6.90;;
48034;SDS011;33812;46.480;6.834;2023-09-12T12:05:57;22.10;;;6.38;;
48034;SDS011;33812;46.480;6.834;2023-09-12T12:10:01;16.15;;;5.82;;
48034;SDS011;33812;46.480;6.834;2023-09-12T12:14:10;16.85;;;5.90;;
48034;SDS011;33812;46.480;6.834;2023-09-12T12:18:14;9.32;;;5.03;;
48034;SDS011;33812;46.480;6.834;2023-09-12T12:22:16;13.38;;;5.18;;
48034;SDS011;33812;46.480;6.834;2023-09-12T12:26:19;7.53;;;4.90;;
48034;SDS011;33812;46.480;6.834;2023-09-12T12:30:21;7.50;;;4.43;;
48034;SDS011;33812;46.480;6.834;2023-09-12T12:34:22;9.82;;;4.90;;
48034;SDS011;33812;46.480;6.834;2023-09-12T12:38:24;6.85;;;4.60;;
48034;SDS011;33812;46.480;6.834;2023-09-12T12:42:32;10.50;;;5.18;;
48034;SDS011;33812;46.480;6.834;2023-09-12T12:46:36;13.63;;;5.43;;
48034;SDS011;33812;46.480;6.834;2023-09-12T12:50:49;10.55;;;5.05;;
48034;SDS011;33812;46.480;6.834;2023-09-12T12:54:51;13.10;;;4.85;;
48034;SDS011;33812;46.480;6.834;2023-09-12T12:58:57;16.85;;;5.32;;
48034;SDS011;33812;46.480;6.834;2023-09-12T13:03:02;21.05;;;6.00;;
48034;SDS011;33812;46.480;6.834;2023-09-12T13:07:04;9.43;;;4.55;;
48034;SDS011;33812;46.480;6.834;2023-09-12T13:11:06;20.48;;;5.15;;
48034;SDS011;33812;46.480;6.834;2023-09-12T13:15:10;18.88;;;5.82;;
48034;SDS011;33812;46.480;6.834;2023-09-12T13:19:12;12.02;;;4.82;;
48034;SDS011;33812;46.480;6.834;2023-09-12T13:23:13;13.77;;;5.07;;
48034;SDS011;33812;46.480;6.834;2023-09-12T13:27:15;17.02;;;5.63;;
48034;SDS011;33812;46.480;6.834;2023-09-12T13:31:18;26.58;;;6.15;;
48034;SDS011;33812;46.480;6.834;2023-09-12T13:35:20;40.28;;;7.40;;
48034;SDS011;33812;46.480;6.834;2023-09-12T13:39:22;13.20;;;4.97;;
48034;SDS011;33812;46.480;6.834;2023-09-12T13:43:24;7.85;;;4.80;;
48034;SDS011;33812;46.480;6.834;2023-09-12T13:47:28;14.63;;;4.85;;
48034;SDS011;33812;46.480;6.834;2023-09-12T13:51:30;14.57;;;4.82;;
48034;SDS011;33812;46.480;6.834;2023-09-12T13:55:32;11.18;;;4.68;;
48034;SDS011;33812;46.480;6.834;2023-09-12T13:59:35;12.45;;;4.97;;
48034;SDS011;33812;46.480;6.834;2023-09-12T14:03:38;8.82;;;4.45;;
48034;SDS011;33812;46.480;6.834;2023-09-12T14:07:40;8.10;;;4.43;;
48034;SDS011;33812;46.480;6.834;2023-09-12T14:11:42;8.73;;;4.20;;
48034;SDS011;33812;46.480;6.834;2023-09-12T14:15:46;12.25;;;5.22;;
48034;SDS011;33812;46.480;6.834;2023-09-12T14:19:51;6.18;;;4.10;;
48034;SDS011;33812;46.480;6.834;2023-09-12T14:23:53;5.68;;;4.38;;
48034;SDS011;33812;46.480;6.834;2023-09-12T14:27:55;15.85;;;5.25;;
48034;SDS011;33812;46.480;6.834;2023-09-12T14:31:56;7.72;;;4.32;;
48034;SDS011;33812;46.480;6.834;2023-09-12T14:36:00;6.88;;;4.10;;
48034;SDS011;33812;46.480;6.834;2023-09-12T14:40:05;10.45;;;4.10;;
48034;SDS011;33812;46.480;6.834;2023-09-12T14:44:07;16.10;;;5.15;;
48034;SDS011;33812;46.480;6.834;2023-09-12T14:48:09;22.08;;;5.70;;
48034;SDS011;33812;46.480;6.834;2023-09-12T14:52:12;6.75;;;4.20;;
48034;SDS011;33812;46.480;6.834;2023-09-12T14:56:14;7.40;;;4.00;;
48034;SDS011;33812;46.480;6.834;2023-09-12T15:00:15;4.22;;;3.83;;
48034;SDS011;33812;46.480;6.834;2023-09-12T15:04:17;10.52;;;4.07;;
48034;SDS011;33812;46.480;6.834;2023-09-12T15:08:20;3.92;;;3.28;;
48034;SDS011;33812;46.480;6.834;2023-09-12T15:12:22;5.80;;;3.90;;
48034;SDS011;33812;46.480;6.834;2023-09-12T15:16:24;5.03;;;3.72;;
48034;SDS011;33812;46.480;6.834;2023-09-12T15:20:26;5.28;;;3.67;;
48034;SDS011;33812;46.480;6.834;2023-09-12T15:24:29;5.35;;;4.03;;
48034;SDS011;33812;46.480;6.834;2023-09-12T15:28:31;9.20;;;4.03;;
48034;SDS011;33812;46.480;6.834;2023-09-12T15:32:33;12.40;;;4.45;;
48034;SDS011;33812;46.480;6.834;2023-09-12T15:36:36;11.68;;;4.53;;
48034;SDS011;33812;46.480;6.834;2023-09-12T15:40:43;8.27;;;4.32;;
48034;SDS011;33812;46.480;6.834;2023-09-12T15:44:45;7.05;;;3.88;;
48034;SDS011;33812;46.480;6.834;2023-09-12T15:48:47;6.22;;;3.83;;
48034;SDS011;33812;46.480;6.834;2023-09-12T15:52:48;9.88;;;4.07;;
48034;SDS011;33812;46.480;6.834;2023-09-12T15:56:52;12.70;;;4.50;;
48034;SDS011;33812;46.480;6.834;2023-09-12T16:00:54;5.35;;;3.55;;
48034;SDS011;33812;46.480;6.834;2023-09-12T16:04:57;6.32;;;3.60;;
48034;SDS011;33812;46.480;6.834;2023-09-12T16:08:59;10.30;;;4.00;;
48034;SDS011;33812;46.480;6.834;2023-09-12T16:13:03;15.13;;;4.93;;
48034;SDS011;33812;46.480;6.834;2023-09-12T16:17:04;11.88;;;4.18;;
48034;SDS011;33812;46.480;6.834;2023-09-12T16:21:07;36.58;;;6.28;;
48034;SDS011;33812;46.480;6.834;2023-09-12T16:25:10;43.10;;;6.93;;
48034;SDS011;33812;46.480;6.834;2023-09-12T16:29:13;15.23;;;2.92;;
48034;SDS011;33812;46.480;6.834;2023-09-12T16:33:15;9.50;;;3.05;;
48034;SDS011;33812;46.480;6.834;2023-09-12T16:37:17;8.90;;;2.30;;
48034;SDS011;33812;46.480;6.834;2023-09-12T16:41:19;10.43;;;2.92;;
48034;SDS011;33812;46.480;6.834;2023-09-12T16:45:22;10.95;;;3.25;;
48034;SDS011;33812;46.480;6.834;2023-09-12T16:49:23;17.58;;;3.83;;
48034;SDS011;33812;46.480;6.834;2023-09-12T16:53:25;29.67;;;3.97;;
48034;SDS011;33812;46.480;6.834;2023-09-12T16:57:27;8.02;;;2.75;;
48034;SDS011;33812;46.480;6.834;2023-09-12T17:01:30;30.70;;;5.10;;
48034;SDS011;33812;46.480;6.834;2023-09-12T17:05:32;20.55;;;3.95;;
48034;SDS011;33812;46.480;6.834;2023-09-12T17:09:34;12.07;;;3.40;;
48034;SDS011;33812;46.480;6.834;2023-09-12T17:13:35;10.05;;;2.97;;
48034;SDS011;33812;46.480;6.834;2023-09-12T17:17:39;21.40;;;3.47;;
48034;SDS011;33812;46.480;6.834;2023-09-12T17:21:40;13.23;;;3.53;;
48034;SDS011;33812;46.480;6.834;2023-09-12T17:25:42;15.57;;;3.33;;
48034;SDS011;33812;46.480;6.834;2023-09-12T17:29:44;16.45;;;3.25;;
48034;SDS011;33812;46.480;6.834;2023-09-12T17:33:47;24.67;;;4.47;;
48034;SDS011;33812;46.480;6.834;2023-09-12T17:37:49;7.00;;;3.10;;
48034;SDS011;33812;46.480;6.834;2023-09-12T17:41:50;7.15;;;2.80;;
48034;SDS011;33812;46.480;6.834;2023-09-12T17:45:53;27.90;;;5.70;;
48034;SDS011;33812;46.480;6.834;2023-09-12T17:49:56;41.53;;;6.38;;
48034;SDS011;33812;46.480;6.834;2023-09-12T17:53:58;19.90;;;3.85;;
48034;SDS011;33812;46.480;6.834;2023-09-12T17:58:00;10.13;;;3.17;;
48034;SDS011;33812;46.480;6.834;2023-09-12T18:02:02;7.45;;;2.38;;
48034;SDS011;33812;46.480;6.834;2023-09-12T18:06:05;11.07;;;3.05;;
48034;SDS011;33812;46.480;6.834;2023-09-12T18:10:07;11.35;;;3.20;;
48034;SDS011;33812;46.480;6.834;2023-09-12T18:14:10;23.98;;;4.00;;
48034;SDS011;33812;46.480;6.834;2023-09-12T18:18:11;14.63;;;3.05;;
48034;SDS011;33812;46.480;6.834;2023-09-12T18:22:15;22.15;;;3.92;;
48034;SDS011;33812;46.480;6.834;2023-09-12T18:26:17;18.60;;;3.90;;
48034;SDS011;33812;46.480;6.834;2023-09-12T18:30:19;12.73;;;2.80;;
48034;SDS011;33812;46.480;6.834;2023-09-12T18:34:21;25.92;;;3.85;;
48034;SDS011;33812;46.480;6.834;2023-09-12T18:38:24;32.83;;;5.55;;
48034;SDS011;33812;46.480;6.834;2023-09-12T18:42:26;9.07;;;3.05;;
48034;SDS011;33812;46.480;6.834;2023-09-12T18:46:29;29.33;;;4.50;;
48034;SDS011;33812;46.480;6.834;2023-09-12T18:50:31;15.05;;;2.90;;
48034;SDS011;33812;46.480;6.834;2023-09-12T18:54:34;27.08;;;4.22;;
48034;SDS011;33812;46.480;6.834;2023-09-12T18:58:36;18.38;;;3.10;;
48034;SDS011;33812;46.480;6.834;2023-09-12T19:02:38;30.48;;;3.60;;
48034;SDS011;33812;46.480;6.834;2023-09-12T19:06:40;61.95;;;5.70;;
48034;SDS011;33812;46.480;6.834;2023-09-12T19:10:43;24.27;;;3.67;;
48034;SDS011;33812;46.480;6.834;2023-09-12T19:14:48;19.00;;;3.92;;
48034;SDS011;33812;46.480;6.834;2023-09-12T19:18:50;11.07;;;2.83;;
48034;SDS011;33812;46.480;6.834;2023-09-12T19:22:52;9.55;;;2.80;;
48034;SDS011;33812;46.480;6.834;2023-09-12T19:26:55;13.93;;;3.22;;
48034;SDS011;33812;46.480;6.834;2023-09-12T19:30:57;16.17;;;3.60;;
48034;SDS011;33812;46.480;6.834;2023-09-12T19:34:59;15.52;;;3.63;;
48034;SDS011;33812;46.480;6.834;2023-09-12T19:39:01;24.60;;;4.85;;
48034;SDS011;33812;46.480;6.834;2023-09-12T19:43:04;16.70;;;4.05;;
48034;SDS011;33812;46.480;6.834;2023-09-12T19:47:06;32.95;;;6.07;;
48034;SDS011;33812;46.480;6.834;2023-09-12T19:51:08;18.85;;;3.90;;
48034;SDS011;33812;46.480;6.834;2023-09-12T19:55:10;11.43;;;3.88;;
48034;SDS011;33812;46.480;6.834;2023-09-12T19:59:13;25.60;;;5.55;;
48034;SDS011;33812;46.480;6.834;2023-09-12T20:03:15;16.30;;;3.83;;
48034;SDS011;33812;46.480;6.834;2023-09-12T20:07:19;17.60;;;4.50;;
48034;SDS011;33812;46.480;6.834;2023-09-12T20:11:20;15.05;;;4.07;;
48034;SDS011;33812;46.480;6.834;2023-09-12T20:15:24;11.55;;;3.80;;
48034;SDS011;33812;46.480;6.834;2023-09-12T20:19:26;19.83;;;4.63;;
48034;SDS011;33812;46.480;6.834;2023-09-12T20:23:28;16.27;;;4.10;;
48034;SDS011;33812;46.480;6.834;2023-09-12T20:27:29;13.60;;;3.95;;
48034;SDS011;33812;46.480;6.834;2023-09-12T20:31:33;68.10;;;5.28;;
48034;SDS011;33812;46.480;6.834;2023-09-12T20:35:34;15.00;;;3.85;;
48034;SDS011;33812;46.480;6.834;2023-09-12T20:39:36;25.27;;;5.18;;
48034;SDS011;33812;46.480;6.834;2023-09-12T20:43:38;14.05;;;4.00;;
48034;SDS011;33812;46.480;6.834;2023-09-12T20:47:41;15.15;;;3.75;;
48034;SDS011;33812;46.480;6.834;2023-09-12T20:51:46;11.02;;;3.10;;
48034;SDS011;33812;46.480;6.834;2023-09-12T20:55:48;29.65;;;5.72;;
48034;SDS011;33812;46.480;6.834;2023-09-12T20:59:50;11.57;;;3.45;;
48034;SDS011;33812;46.480;6.834;2023-09-12T21:03:54;16.98;;;3.65;;
48034;SDS011;33812;46.480;6.834;2023-09-12T21:07:56;15.77;;;3.78;;
48034;SDS011;33812;46.480;6.834;2023-09-12T21:11:59;8.32;;;3.03;;
48034;SDS011;33812;46.480;6.834;2023-09-12T21:20:08;13.73;;;3.47;;
48034;SDS011;33812;46.480;6.834;2023-09-12T21:24:10;19.42;;;4.25;;
48034;SDS011;33812;46.480;6.834;2023-09-12T21:28:13;30.10;;;5.25;;
48034;SDS011;33812;46.480;6.834;2023-09-12T21:32:15;34.88;;;5.55;;
48034;SDS011;33812;46.480;6.834;2023-09-12T21:36:18;30.70;;;5.05;;
48034;SDS011;33812;46.480;6.834;2023-09-12T21:40:20;32.15;;;5.90;;
48034;SDS011;33812;46.480;6.834;2023-09-12T21:44:22;42.55;;;6.60;;
48034;SDS011;33812;46.480;6.834;2023-09-12T21:48:24;29.02;;;4.95;;
48034;SDS011;33812;46.480;6.834;2023-09-12T21:52:27;29.23;;;5.15;;
48034;SDS011;33812;46.480;6.834;2023-09-12T21:56:30;32.33;;;5.30;;
48034;SDS011;33812;46.480;6.834;2023-09-12T22:00:32;30.48;;;5.22;;
48034;SDS011;33812;46.480;6.834;2023-09-12T22:04:34;44.10;;;6.50;;
48034;SDS011;33812;46.480;6.834;2023-09-12T22:08:37;30.55;;;5.38;;
48034;SDS011;33812;46.480;6.834;2023-09-12T22:12:39;27.15;;;5.05;;
48034;SDS011;33812;46.480;6.834;2023-09-12T22:16:41;29.92;;;5.10;;
48034;SDS011;33812;46.480;6.834;2023-09-12T22:20:43;32.15;;;5.20;;
48034;SDS011;33812;46.480;6.834;2023-09-12T22:24:46;31.60;;;5.25;;
48034;SDS011;33812;46.480;6.834;2023-09-12T22:28:48;31.98;;;4.93;;
48034;SDS011;33812;46.480;6.834;2023-09-12T22:32:50;34.83;;;5.75;;
48034;SDS011;33812;46.480;6.834;2023-09-12T22:36:52;33.75;;;5.55;;
48034;SDS011;33812;46.480;6.834;2023-09-12T22:40:55;31.85;;;5.47;;
48034;SDS011;33812;46.480;6.834;2023-09-12T22:44:57;38.65;;;5.97;;
48034;SDS011;33812;46.480;6.834;2023-09-12T22:48:58;31.35;;;5.20;;
48034;SDS011;33812;46.480;6.834;2023-09-12T22:53:01;37.45;;;5.85;;
48034;SDS011;33812;46.480;6.834;2023-09-12T22:57:04;32.05;;;5.65;;
48034;SDS011;33812;46.480;6.834;2023-09-12T23:01:06;35.03;;;5.73;;
48034;SDS011;33812;46.480;6.834;2023-09-12T23:05:09;29.55;;;5.07;;
48034;SDS011;33812;46.480;6.834;2023-09-12T23:09:11;26.52;;;4.25;;
48034;SDS011;33812;46.480;6.834;2023-09-12T23:13:15;24.85;;;4.03;;
48034;SDS011;33812;46.480;6.834;2023-09-12T23:17:16;36.75;;;5.45;;
48034;SDS011;33812;46.480;6.834;2023-09-12T23:21:18;37.83;;;4.90;;
48034;SDS011;33812;46.480;6.834;2023-09-12T23:25:20;29.38;;;4.75;;
48034;SDS011;33812;46.480;6.834;2023-09-12T23:29:23;30.48;;;4.60;;
48034;SDS011;33812;46.480;6.834;2023-09-12T23:33:25;38.25;;;5.75;;
48034;SDS011;33812;46.480;6.834;2023-09-12T23:37:27;27.15;;;4.70;;
48034;SDS011;33812;46.480;6.834;2023-09-12T23:41:30;28.60;;;4.45;;
48034;SDS011;33812;46.480;6.834;2023-09-12T23:45:33;25.45;;;4.47;;
48034;SDS011;33812;46.480;6.834;2023-09-12T23:49:35;29.88;;;4.85;;
48034;SDS011;33812;46.480;6.834;2023-09-12T23:53:37;27.90;;;4.55;;
48034;SDS011;33812;46.480;6.834;2023-09-12T23:57:39;28.13;;;4.65;;
